sensor_id;sensor_type;location;lat;lon;timestamp;P1;durP1;ratioP1;P2;durP2;ratioP2
10880;SDS011;5493;48.884;8.338;2023-05-15T00:01:47;2.80;;;2.43;;
10880;SDS011;5493;48.884;8.338;2023-05-15T00:04:13;4.03;;;2.73;;
10880;SDS011;5493;48.884;8.338;2023-05-15T00:06:41;3.83;;;2.53;;
10880;SDS011;5493;48.884;8.338;2023-05-15T00:09:08;5.00;;;2.30;;
10880;SDS011;5493;48.884;8.338;2023-05-15T00:11:34;3.10;;;2.60;;
10880;SDS011;5493;48.884;8.338;2023-05-15T00:14:01;3.47;;;2.93;;
10880;SDS011;5493;48.884;8.338;2023-05-15T00:16:27;5.27;;;3.07;;
10880;SDS011;5493;48.884;8.338;2023-05-15T00:18:54;3.63;;;2.70;;
10880;SDS011;5493;48.884;8.338;2023-05-15T00:21:20;3.20;;;2.57;;
10880;SDS011;5493;48.884;8.338;2023-05-15T00:23:48;4.40;;;2.60;;
10880;SDS011;5493;48.884;8.338;2023-05-15T00:26:17;3.40;;;2.80;;
10880;SDS011;5493;48.884;8.338;2023-05-15T00:28:44;3.40;;;2.40;;
10880;SDS011;5493;48.884;8.338;2023-05-15T00:31:11;3.60;;;2.67;;
10880;SDS011;5493;48.884;8.338;2023-05-15T00:33:38;3.73;;;2.80;;
10880;SDS011;5493;48.884;8.338;2023-05-15T00:36:05;5.23;;;3.27;;
10880;SDS011;5493;48.884;8.338;2023-05-15T00:38:32;4.07;;;3.00;;
10880;SDS011;5493;48.884;8.338;2023-05-15T00:41:00;3.20;;;2.80;;
10880;SDS011;5493;48.884;8.338;2023-05-15T00:43:27;3.20;;;2.90;;
10880;SDS011;5493;48.884;8.338;2023-05-15T00:45:54;3.40;;;2.73;;
10880;SDS011;5493;48.884;8.338;2023-05-15T00:48:22;4.00;;;2.73;;
10880;SDS011;5493;48.884;8.338;2023-05-15T00:50:49;4.93;;;3.17;;
10880;SDS011;5493;48.884;8.338;2023-05-15T00:53:16;3.80;;;3.20;;
10880;SDS011;5493;48.884;8.338;2023-05-15T00:55:44;3.03;;;2.73;;
10880;SDS011;5493;48.884;8.338;2023-05-15T00:58:13;5.30;;;3.07;;
10880;SDS011;5493;48.884;8.338;2023-05-15T01:00:40;3.30;;;2.83;;
10880;SDS011;5493;48.884;8.338;2023-05-15T01:03:08;3.50;;;2.90;;
10880;SDS011;5493;48.884;8.338;2023-05-15T01:05:34;5.07;;;3.40;;
10880;SDS011;5493;48.884;8.338;2023-05-15T01:08:03;4.93;;;2.90;;
10880;SDS011;5493;48.884;8.338;2023-05-15T01:10:33;2.57;;;2.37;;
10880;SDS011;5493;48.884;8.338;2023-05-15T01:13:00;3.10;;;2.80;;
10880;SDS011;5493;48.884;8.338;2023-05-15T01:15:29;3.20;;;2.90;;
10880;SDS011;5493;48.884;8.338;2023-05-15T01:17:56;3.70;;;2.97;;
10880;SDS011;5493;48.884;8.338;2023-05-15T01:20:22;3.87;;;2.97;;
10880;SDS011;5493;48.884;8.338;2023-05-15T01:22:52;5.20;;;2.87;;
10880;SDS011;5493;48.884;8.338;2023-05-15T01:25:36;3.20;;;2.90;;
10880;SDS011;5493;48.884;8.338;2023-05-15T01:28:21;3.70;;;3.10;;
10880;SDS011;5493;48.884;8.338;2023-05-15T01:30:55;3.33;;;2.93;;
10880;SDS011;5493;48.884;8.338;2023-05-15T01:33:27;3.93;;;3.07;;
10880;SDS011;5493;48.884;8.338;2023-05-15T01:35:59;3.57;;;3.00;;
10880;SDS011;5493;48.884;8.338;2023-05-15T01:38:33;3.93;;;2.83;;
10880;SDS011;5493;48.884;8.338;2023-05-15T01:41:05;3.43;;;3.03;;
10880;SDS011;5493;48.884;8.338;2023-05-15T01:43:43;3.47;;;2.90;;
10880;SDS011;5493;48.884;8.338;2023-05-15T01:46:11;4.13;;;2.87;;
10880;SDS011;5493;48.884;8.338;2023-05-15T01:48:39;4.50;;;2.80;;
10880;SDS011;5493;48.884;8.338;2023-05-15T01:51:08;3.87;;;2.67;;
10880;SDS011;5493;48.884;8.338;2023-05-15T01:53:38;4.33;;;2.90;;
10880;SDS011;5493;48.884;8.338;2023-05-15T01:56:06;3.33;;;3.03;;
10880;SDS011;5493;48.884;8.338;2023-05-15T01:58:34;3.03;;;2.70;;
10880;SDS011;5493;48.884;8.338;2023-05-15T02:01:03;6.70;;;3.13;;
10880;SDS011;5493;48.884;8.338;2023-05-15T02:03:31;4.77;;;2.93;;
10880;SDS011;5493;48.884;8.338;2023-05-15T02:05:59;3.47;;;2.93;;
10880;SDS011;5493;48.884;8.338;2023-05-15T02:08:26;3.53;;;3.03;;
10880;SDS011;5493;48.884;8.338;2023-05-15T02:10:53;3.10;;;2.73;;
10880;SDS011;5493;48.884;8.338;2023-05-15T02:13:20;3.60;;;3.20;;
10880;SDS011;5493;48.884;8.338;2023-05-15T02:15:48;3.50;;;3.20;;
10880;SDS011;5493;48.884;8.338;2023-05-15T02:18:16;4.13;;;2.67;;
10880;SDS011;5493;48.884;8.338;2023-05-15T02:20:43;3.60;;;3.30;;
10880;SDS011;5493;48.884;8.338;2023-05-15T02:23:09;3.50;;;3.20;;
10880;SDS011;5493;48.884;8.338;2023-05-15T02:25:37;3.40;;;3.10;;
10880;SDS011;5493;48.884;8.338;2023-05-15T02:28:11;3.40;;;3.10;;
10880;SDS011;5493;48.884;8.338;2023-05-15T02:30:44;4.07;;;3.67;;
10880;SDS011;5493;48.884;8.338;2023-05-15T02:33:21;3.47;;;3.17;;
10880;SDS011;5493;48.884;8.338;2023-05-15T02:35:56;3.90;;;3.10;;
10880;SDS011;5493;48.884;8.338;2023-05-15T02:38:27;3.83;;;3.30;;
10880;SDS011;5493;48.884;8.338;2023-05-15T02:40:56;4.40;;;3.20;;
10880;SDS011;5493;48.884;8.338;2023-05-15T02:43:25;3.27;;;2.80;;
10880;SDS011;5493;48.884;8.338;2023-05-15T02:45:53;5.30;;;3.03;;
10880;SDS011;5493;48.884;8.338;2023-05-15T02:48:23;6.20;;;2.87;;
10880;SDS011;5493;48.884;8.338;2023-05-15T02:50:50;5.27;;;3.13;;
10880;SDS011;5493;48.884;8.338;2023-05-15T02:53:17;4.20;;;2.80;;
10880;SDS011;5493;48.884;8.338;2023-05-15T02:55:44;6.33;;;3.23;;
10880;SDS011;5493;48.884;8.338;2023-05-15T02:58:10;3.93;;;3.53;;
10880;SDS011;5493;48.884;8.338;2023-05-15T03:00:37;4.67;;;3.57;;
10880;SDS011;5493;48.884;8.338;2023-05-15T03:03:03;3.93;;;3.43;;
10880;SDS011;5493;48.884;8.338;2023-05-15T03:05:31;3.40;;;3.10;;
10880;SDS011;5493;48.884;8.338;2023-05-15T03:07:58;3.50;;;3.03;;
10880;SDS011;5493;48.884;8.338;2023-05-15T03:10:25;3.77;;;3.30;;
10880;SDS011;5493;48.884;8.338;2023-05-15T03:12:53;3.77;;;3.27;;
10880;SDS011;5493;48.884;8.338;2023-05-15T03:15:22;5.20;;;3.40;;
10880;SDS011;5493;48.884;8.338;2023-05-15T03:17:48;4.23;;;3.63;;
10880;SDS011;5493;48.884;8.338;2023-05-15T03:20:15;3.97;;;3.33;;
10880;SDS011;5493;48.884;8.338;2023-05-15T03:22:43;3.87;;;3.43;;
10880;SDS011;5493;48.884;8.338;2023-05-15T03:25:10;4.40;;;3.47;;
10880;SDS011;5493;48.884;8.338;2023-05-15T03:27:37;3.50;;;3.20;;
10880;SDS011;5493;48.884;8.338;2023-05-15T03:30:04;3.80;;;3.20;;
10880;SDS011;5493;48.884;8.338;2023-05-15T03:32:31;4.73;;;3.50;;
10880;SDS011;5493;48.884;8.338;2023-05-15T03:34:58;3.47;;;2.97;;
10880;SDS011;5493;48.884;8.338;2023-05-15T03:37:24;3.83;;;3.17;;
10880;SDS011;5493;48.884;8.338;2023-05-15T03:39:52;5.77;;;3.30;;
10880;SDS011;5493;48.884;8.338;2023-05-15T03:42:19;5.03;;;3.43;;
10880;SDS011;5493;48.884;8.338;2023-05-15T03:44:47;3.40;;;3.10;;
10880;SDS011;5493;48.884;8.338;2023-05-15T03:47:14;3.80;;;3.40;;
10880;SDS011;5493;48.884;8.338;2023-05-15T03:49:40;5.30;;;3.27;;
10880;SDS011;5493;48.884;8.338;2023-05-15T03:52:07;3.30;;;3.00;;
10880;SDS011;5493;48.884;8.338;2023-05-15T03:54:34;3.60;;;3.23;;
10880;SDS011;5493;48.884;8.338;2023-05-15T03:57:02;4.47;;;3.23;;
10880;SDS011;5493;48.884;8.338;2023-05-15T03:59:29;3.23;;;2.90;;
10880;SDS011;5493;48.884;8.338;2023-05-15T04:01:56;3.77;;;2.77;;
10880;SDS011;5493;48.884;8.338;2023-05-15T04:04:22;3.53;;;2.90;;
10880;SDS011;5493;48.884;8.338;2023-05-15T04:06:49;3.40;;;3.10;;
10880;SDS011;5493;48.884;8.338;2023-05-15T04:09:16;3.50;;;3.20;;
10880;SDS011;5493;48.884;8.338;2023-05-15T04:11:42;3.50;;;3.20;;
10880;SDS011;5493;48.884;8.338;2023-05-15T04:14:12;3.23;;;2.93;;
10880;SDS011;5493;48.884;8.338;2023-05-15T04:16:38;4.27;;;3.40;;
10880;SDS011;5493;48.884;8.338;2023-05-15T04:19:05;3.53;;;3.23;;
10880;SDS011;5493;48.884;8.338;2023-05-15T04:21:31;3.50;;;3.20;;
10880;SDS011;5493;48.884;8.338;2023-05-15T04:23:58;5.77;;;4.07;;
10880;SDS011;5493;48.884;8.338;2023-05-15T04:26:24;6.80;;;3.50;;
10880;SDS011;5493;48.884;8.338;2023-05-15T04:28:51;4.77;;;3.53;;
10880;SDS011;5493;48.884;8.338;2023-05-15T04:31:19;4.57;;;3.27;;
10880;SDS011;5493;48.884;8.338;2023-05-15T04:33:45;4.00;;;3.60;;
10880;SDS011;5493;48.884;8.338;2023-05-15T04:36:12;3.67;;;3.33;;
10880;SDS011;5493;48.884;8.338;2023-05-15T04:38:38;4.10;;;3.40;;
10880;SDS011;5493;48.884;8.338;2023-05-15T04:41:05;3.77;;;3.40;;
10880;SDS011;5493;48.884;8.338;2023-05-15T04:43:31;3.70;;;3.30;;
10880;SDS011;5493;48.884;8.338;2023-05-15T04:45:58;3.70;;;3.40;;
10880;SDS011;5493;48.884;8.338;2023-05-15T04:48:26;4.07;;;3.50;;
10880;SDS011;5493;48.884;8.338;2023-05-15T04:50:52;4.57;;;3.30;;
10880;SDS011;5493;48.884;8.338;2023-05-15T04:53:19;3.50;;;3.13;;
10880;SDS011;5493;48.884;8.338;2023-05-15T04:55:45;4.37;;;3.57;;
10880;SDS011;5493;48.884;8.338;2023-05-15T04:58:15;4.00;;;3.60;;
10880;SDS011;5493;48.884;8.338;2023-05-15T05:00:41;4.47;;;3.50;;
10880;SDS011;5493;48.884;8.338;2023-05-15T05:03:08;4.00;;;3.60;;
10880;SDS011;5493;48.884;8.338;2023-05-15T05:05:36;3.97;;;3.53;;
10880;SDS011;5493;48.884;8.338;2023-05-15T05:08:03;4.60;;;3.57;;
10880;SDS011;5493;48.884;8.338;2023-05-15T05:10:30;3.90;;;3.50;;
10880;SDS011;5493;48.884;8.338;2023-05-15T05:12:56;4.53;;;3.37;;
10880;SDS011;5493;48.884;8.338;2023-05-15T05:15:23;4.97;;;3.60;;
10880;SDS011;5493;48.884;8.338;2023-05-15T05:17:49;5.53;;;3.70;;
10880;SDS011;5493;48.884;8.338;2023-05-15T05:20:31;4.80;;;3.60;;
10880;SDS011;5493;48.884;8.338;2023-05-15T05:22:58;5.17;;;3.23;;
10880;SDS011;5493;48.884;8.338;2023-05-15T05:25:24;3.67;;;3.37;;
10880;SDS011;5493;48.884;8.338;2023-05-15T05:27:51;5.47;;;3.30;;
10880;SDS011;5493;48.884;8.338;2023-05-15T05:30:17;3.90;;;3.50;;
10880;SDS011;5493;48.884;8.338;2023-05-15T05:32:44;4.33;;;3.93;;
10880;SDS011;5493;48.884;8.338;2023-05-15T05:35:10;3.63;;;3.33;;
10880;SDS011;5493;48.884;8.338;2023-05-15T05:37:38;3.47;;;3.17;;
10880;SDS011;5493;48.884;8.338;2023-05-15T05:40:05;3.70;;;3.40;;
10880;SDS011;5493;48.884;8.338;2023-05-15T05:42:33;3.17;;;2.87;;
10880;SDS011;5493;48.884;8.338;2023-05-15T05:45:00;5.07;;;2.93;;
10880;SDS011;5493;48.884;8.338;2023-05-15T05:47:26;3.45;;;3.15;;
10880;SDS011;5493;48.884;8.338;2023-05-15T05:49:53;6.25;;;3.83;;
10880;SDS011;5493;48.884;8.338;2023-05-15T05:52:19;3.90;;;3.00;;
10880;SDS011;5493;48.884;8.338;2023-05-15T05:54:47;3.15;;;2.78;;
10880;SDS011;5493;48.884;8.338;2023-05-15T05:57:14;2.97;;;2.70;;
10880;SDS011;5493;48.884;8.338;2023-05-15T05:59:40;4.25;;;2.80;;
10880;SDS011;5493;48.884;8.338;2023-05-15T06:02:07;5.65;;;3.55;;
10880;SDS011;5493;48.884;8.338;2023-05-15T06:04:34;3.47;;;2.70;;
10880;SDS011;5493;48.884;8.338;2023-05-15T06:07:01;3.33;;;2.67;;
10880;SDS011;5493;48.884;8.338;2023-05-15T06:09:27;3.30;;;2.90;;
10880;SDS011;5493;48.884;8.338;2023-05-15T06:11:55;2.20;;;2.00;;
10880;SDS011;5493;48.884;8.338;2023-05-15T06:14:22;4.30;;;2.53;;
10880;SDS011;5493;48.884;8.338;2023-05-15T06:16:48;2.58;;;2.38;;
10880;SDS011;5493;48.884;8.338;2023-05-15T06:19:15;2.60;;;2.40;;
10880;SDS011;5493;48.884;8.338;2023-05-15T06:21:41;2.47;;;2.28;;
10880;SDS011;5493;48.884;8.338;2023-05-15T06:24:08;3.03;;;2.72;;
10880;SDS011;5493;48.884;8.338;2023-05-15T06:26:34;5.15;;;2.33;;
10880;SDS011;5493;48.884;8.338;2023-05-15T06:29:02;3.85;;;2.83;;
10880;SDS011;5493;48.884;8.338;2023-05-15T06:31:29;2.95;;;2.75;;
10880;SDS011;5493;48.884;8.338;2023-05-15T06:33:56;3.55;;;2.85;;
10880;SDS011;5493;48.884;8.338;2023-05-15T06:36:22;4.00;;;3.20;;
10880;SDS011;5493;48.884;8.338;2023-05-15T06:38:49;3.58;;;2.83;;
10880;SDS011;5493;48.884;8.338;2023-05-15T06:41:15;2.92;;;2.72;;
10880;SDS011;5493;48.884;8.338;2023-05-15T06:43:42;4.13;;;2.80;;
10880;SDS011;5493;48.884;8.338;2023-05-15T06:46:10;4.03;;;2.97;;
10880;SDS011;5493;48.884;8.338;2023-05-15T06:48:36;3.35;;;3.05;;
10880;SDS011;5493;48.884;8.338;2023-05-15T06:51:03;5.63;;;2.83;;
10880;SDS011;5493;48.884;8.338;2023-05-15T06:53:29;3.17;;;2.73;;
10880;SDS011;5493;48.884;8.338;2023-05-15T06:55:56;3.20;;;2.90;;
10880;SDS011;5493;48.884;8.338;2023-05-15T06:58:23;3.13;;;2.83;;
10880;SDS011;5493;48.884;8.338;2023-05-15T07:00:50;3.17;;;2.87;;
10880;SDS011;5493;48.884;8.338;2023-05-15T07:03:17;4.00;;;2.80;;
10880;SDS011;5493;48.884;8.338;2023-05-15T07:05:44;3.40;;;3.10;;
10880;SDS011;5493;48.884;8.338;2023-05-15T07:08:11;3.08;;;2.75;;
10880;SDS011;5493;48.884;8.338;2023-05-15T07:10:37;3.03;;;2.65;;
10880;SDS011;5493;48.884;8.338;2023-05-15T07:13:04;3.90;;;2.78;;
10880;SDS011;5493;48.884;8.338;2023-05-15T07:15:30;6.05;;;2.80;;
10880;SDS011;5493;48.884;8.338;2023-05-15T07:17:57;4.38;;;3.10;;
10880;SDS011;5493;48.884;8.338;2023-05-15T07:20:25;3.65;;;2.97;;
10880;SDS011;5493;48.884;8.338;2023-05-15T07:22:51;3.45;;;3.00;;
10880;SDS011;5493;48.884;8.338;2023-05-15T07:25:17;3.83;;;2.95;;
10880;SDS011;5493;48.884;8.338;2023-05-15T07:27:44;3.20;;;2.90;;
10880;SDS011;5493;48.884;8.338;2023-05-15T07:30:11;3.25;;;2.75;;
10880;SDS011;5493;48.884;8.338;2023-05-15T07:32:38;3.13;;;2.83;;
10880;SDS011;5493;48.884;8.338;2023-05-15T07:35:05;4.00;;;3.07;;
10880;SDS011;5493;48.884;8.338;2023-05-15T07:37:33;3.50;;;2.60;;
10880;SDS011;5493;48.884;8.338;2023-05-15T07:40:00;3.83;;;2.67;;
10880;SDS011;5493;48.884;8.338;2023-05-15T07:42:26;3.73;;;3.00;;
10880;SDS011;5493;48.884;8.338;2023-05-15T07:44:53;3.80;;;3.33;;
10880;SDS011;5493;48.884;8.338;2023-05-15T07:47:19;5.87;;;3.03;;
10880;SDS011;5493;48.884;8.338;2023-05-15T07:49:46;4.30;;;3.50;;
10880;SDS011;5493;48.884;8.338;2023-05-15T07:52:12;4.03;;;3.60;;
10880;SDS011;5493;48.884;8.338;2023-05-15T07:54:40;3.57;;;3.10;;
10880;SDS011;5493;48.884;8.338;2023-05-15T07:57:07;4.03;;;3.20;;
10880;SDS011;5493;48.884;8.338;2023-05-15T07:59:34;3.80;;;2.95;;
10880;SDS011;5493;48.884;8.338;2023-05-15T08:02:00;4.82;;;3.35;;
10880;SDS011;5493;48.884;8.338;2023-05-15T08:04:27;3.88;;;3.35;;
10880;SDS011;5493;48.884;8.338;2023-05-15T08:06:53;4.28;;;3.03;;
10880;SDS011;5493;48.884;8.338;2023-05-15T08:09:20;3.47;;;3.13;;
10880;SDS011;5493;48.884;8.338;2023-05-15T08:11:48;4.15;;;2.80;;
10880;SDS011;5493;48.884;8.338;2023-05-15T08:14:15;3.38;;;2.92;;
10880;SDS011;5493;48.884;8.338;2023-05-15T08:16:41;3.33;;;3.03;;
10880;SDS011;5493;48.884;8.338;2023-05-15T08:19:08;3.38;;;2.75;;
10880;SDS011;5493;48.884;8.338;2023-05-15T08:21:34;3.45;;;2.97;;
10880;SDS011;5493;48.884;8.338;2023-05-15T08:24:01;3.58;;;3.28;;
10880;SDS011;5493;48.884;8.338;2023-05-15T08:26:28;4.07;;;2.97;;
10880;SDS011;5493;48.884;8.338;2023-05-15T08:28:55;5.10;;;2.72;;
10880;SDS011;5493;48.884;8.338;2023-05-15T08:31:22;4.55;;;3.05;;
10880;SDS011;5493;48.884;8.338;2023-05-15T08:33:48;2.72;;;2.53;;
10880;SDS011;5493;48.884;8.338;2023-05-15T08:36:15;6.43;;;2.88;;
10880;SDS011;5493;48.884;8.338;2023-05-15T08:38:43;3.45;;;2.85;;
10880;SDS011;5493;48.884;8.338;2023-05-15T08:41:11;3.10;;;2.50;;
10880;SDS011;5493;48.884;8.338;2023-05-15T08:43:45;2.75;;;2.47;;
10880;SDS011;5493;48.884;8.338;2023-05-15T08:46:16;3.28;;;2.50;;
10880;SDS011;5493;48.884;8.338;2023-05-15T08:48:43;3.00;;;2.70;;
10880;SDS011;5493;48.884;8.338;2023-05-15T08:51:10;2.92;;;2.45;;
10880;SDS011;5493;48.884;8.338;2023-05-15T08:53:37;4.20;;;2.72;;
10880;SDS011;5493;48.884;8.338;2023-05-15T08:56:04;2.75;;;2.55;;
10880;SDS011;5493;48.884;8.338;2023-05-15T08:58:31;3.28;;;2.83;;
10880;SDS011;5493;48.884;8.338;2023-05-15T09:00:58;3.20;;;2.70;;
10880;SDS011;5493;48.884;8.338;2023-05-15T09:03:27;5.57;;;2.70;;
10880;SDS011;5493;48.884;8.338;2023-05-15T09:05:54;2.80;;;2.60;;
10880;SDS011;5493;48.884;8.338;2023-05-15T09:08:21;4.57;;;2.92;;
10880;SDS011;5493;48.884;8.338;2023-05-15T09:10:48;3.85;;;2.70;;
10880;SDS011;5493;48.884;8.338;2023-05-15T09:13:16;3.03;;;2.78;;
10880;SDS011;5493;48.884;8.338;2023-05-15T09:15:44;5.13;;;2.67;;
10880;SDS011;5493;48.884;8.338;2023-05-15T09:18:11;3.88;;;2.97;;
10880;SDS011;5493;48.884;8.338;2023-05-15T09:20:41;3.60;;;2.55;;
10880;SDS011;5493;48.884;8.338;2023-05-15T09:23:21;2.22;;;2.03;;
10880;SDS011;5493;48.884;8.338;2023-05-15T09:25:49;2.92;;;2.50;;
10880;SDS011;5493;48.884;8.338;2023-05-15T09:28:24;2.90;;;2.60;;
10880;SDS011;5493;48.884;8.338;2023-05-15T09:30:55;3.80;;;2.55;;
10880;SDS011;5493;48.884;8.338;2023-05-15T09:33:26;2.53;;;2.33;;
10880;SDS011;5493;48.884;8.338;2023-05-15T09:35:54;2.65;;;2.45;;
10880;SDS011;5493;48.884;8.338;2023-05-15T09:38:21;3.15;;;2.70;;
10880;SDS011;5493;48.884;8.338;2023-05-15T09:40:47;3.65;;;2.60;;
10880;SDS011;5493;48.884;8.338;2023-05-15T09:43:14;2.88;;;2.38;;
10880;SDS011;5493;48.884;8.338;2023-05-15T09:45:41;2.67;;;2.35;;
10880;SDS011;5493;48.884;8.338;2023-05-15T09:48:07;3.75;;;2.78;;
10880;SDS011;5493;48.884;8.338;2023-05-15T09:50:36;2.72;;;2.53;;
10880;SDS011;5493;48.884;8.338;2023-05-15T09:53:05;3.25;;;2.50;;
10880;SDS011;5493;48.884;8.338;2023-05-15T09:55:31;2.40;;;2.20;;
10880;SDS011;5493;48.884;8.338;2023-05-15T09:58:05;2.42;;;2.22;;
10880;SDS011;5493;48.884;8.338;2023-05-15T10:00:33;3.15;;;2.60;;
10880;SDS011;5493;48.884;8.338;2023-05-15T10:03:00;2.70;;;2.50;;
10880;SDS011;5493;48.884;8.338;2023-05-15T10:05:28;2.50;;;2.30;;
10880;SDS011;5493;48.884;8.338;2023-05-15T10:07:56;3.30;;;2.65;;
10880;SDS011;5493;48.884;8.338;2023-05-15T10:10:24;2.78;;;2.40;;
10880;SDS011;5493;48.884;8.338;2023-05-15T10:12:52;2.63;;;2.42;;
10880;SDS011;5493;48.884;8.338;2023-05-15T10:15:20;2.60;;;2.40;;
10880;SDS011;5493;48.884;8.338;2023-05-15T10:17:48;3.22;;;2.00;;
10880;SDS011;5493;48.884;8.338;2023-05-15T10:20:17;2.25;;;2.03;;
10880;SDS011;5493;48.884;8.338;2023-05-15T10:22:45;2.25;;;2.00;;
10880;SDS011;5493;48.884;8.338;2023-05-15T10:25:15;3.88;;;2.00;;
10880;SDS011;5493;48.884;8.338;2023-05-15T10:27:44;3.15;;;2.63;;
10880;SDS011;5493;48.884;8.338;2023-05-15T10:30:12;3.22;;;2.40;;
10880;SDS011;5493;48.884;8.338;2023-05-15T10:32:40;2.78;;;2.20;;
10880;SDS011;5493;48.884;8.338;2023-05-15T10:35:08;2.40;;;2.20;;
10880;SDS011;5493;48.884;8.338;2023-05-15T10:37:35;3.10;;;2.10;;
10880;SDS011;5493;48.884;8.338;2023-05-15T10:40:04;2.95;;;2.30;;
10880;SDS011;5493;48.884;8.338;2023-05-15T10:42:34;3.20;;;2.30;;
10880;SDS011;5493;48.884;8.338;2023-05-15T10:45:03;2.25;;;2.05;;
10880;SDS011;5493;48.884;8.338;2023-05-15T10:47:34;2.30;;;2.10;;
10880;SDS011;5493;48.884;8.338;2023-05-15T10:50:01;4.07;;;2.30;;
10880;SDS011;5493;48.884;8.338;2023-05-15T10:52:30;2.13;;;1.80;;
10880;SDS011;5493;48.884;8.338;2023-05-15T10:54:57;3.97;;;2.00;;
10880;SDS011;5493;48.884;8.338;2023-05-15T10:57:24;2.72;;;1.80;;
10880;SDS011;5493;48.884;8.338;2023-05-15T10:59:50;4.72;;;2.03;;
10880;SDS011;5493;48.884;8.338;2023-05-15T11:02:19;2.63;;;1.33;;
10880;SDS011;5493;48.884;8.338;2023-05-15T11:04:47;1.08;;;0.98;;
10880;SDS011;5493;48.884;8.338;2023-05-15T11:07:18;2.15;;;1.00;;
10880;SDS011;5493;48.884;8.338;2023-05-15T11:09:45;1.50;;;1.10;;
10880;SDS011;5493;48.884;8.338;2023-05-15T11:12:11;1.88;;;1.20;;
10880;SDS011;5493;48.884;8.338;2023-05-15T11:14:39;1.50;;;1.40;;
10880;SDS011;5493;48.884;8.338;2023-05-15T11:17:07;1.85;;;1.48;;
10880;SDS011;5493;48.884;8.338;2023-05-15T11:22:25;1.63;;;1.35;;
10880;SDS011;5493;48.884;8.338;2023-05-15T11:24:59;1.95;;;1.48;;
10880;SDS011;5493;48.884;8.338;2023-05-15T11:27:28;1.85;;;1.20;;
10880;SDS011;5493;48.884;8.338;2023-05-15T11:30:02;2.00;;;1.50;;
10880;SDS011;5493;48.884;8.338;2023-05-15T11:32:30;1.92;;;1.50;;
10880;SDS011;5493;48.884;8.338;2023-05-15T11:34:59;2.00;;;1.30;;
10880;SDS011;5493;48.884;8.338;2023-05-15T11:37:28;3.42;;;1.35;;
10880;SDS011;5493;48.884;8.338;2023-05-15T11:39:54;1.20;;;1.10;;
10880;SDS011;5493;48.884;8.338;2023-05-15T11:42:21;1.70;;;1.42;;
10880;SDS011;5493;48.884;8.338;2023-05-15T11:44:47;1.85;;;1.20;;
10880;SDS011;5493;48.884;8.338;2023-05-15T11:47:14;2.35;;;1.50;;
10880;SDS011;5493;48.884;8.338;2023-05-15T11:49:41;2.10;;;1.40;;
10880;SDS011;5493;48.884;8.338;2023-05-15T11:52:09;2.90;;;1.50;;
10880;SDS011;5493;48.884;8.338;2023-05-15T11:54:35;1.48;;;1.20;;
10880;SDS011;5493;48.884;8.338;2023-05-15T11:57:02;1.85;;;1.00;;
10880;SDS011;5493;48.884;8.338;2023-05-15T11:59:32;1.85;;;1.15;;
10880;SDS011;5493;48.884;8.338;2023-05-15T12:01:59;1.30;;;1.20;;
10880;SDS011;5493;48.884;8.338;2023-05-15T12:04:25;1.20;;;1.10;;
10880;SDS011;5493;48.884;8.338;2023-05-15T12:06:52;2.03;;;1.10;;
10880;SDS011;5493;48.884;8.338;2023-05-15T12:09:20;1.23;;;1.13;;
10880;SDS011;5493;48.884;8.338;2023-05-15T12:11:51;1.35;;;1.13;;
10880;SDS011;5493;48.884;8.338;2023-05-15T12:14:25;1.80;;;1.00;;
10880;SDS011;5493;48.884;8.338;2023-05-15T12:16:52;1.45;;;1.15;;
10880;SDS011;5493;48.884;8.338;2023-05-15T12:19:18;1.17;;;1.08;;
10880;SDS011;5493;48.884;8.338;2023-05-15T12:21:52;1.38;;;1.00;;
10880;SDS011;5493;48.884;8.338;2023-05-15T12:24:18;1.52;;;1.10;;
10880;SDS011;5493;48.884;8.338;2023-05-15T12:26:47;1.35;;;1.02;;
10880;SDS011;5493;48.884;8.338;2023-05-15T12:29:14;2.15;;;1.05;;
10880;SDS011;5493;48.884;8.338;2023-05-15T12:31:41;1.42;;;1.30;;
10880;SDS011;5493;48.884;8.338;2023-05-15T12:34:08;1.30;;;1.10;;
10880;SDS011;5493;48.884;8.338;2023-05-15T12:36:35;1.58;;;1.00;;
10880;SDS011;5493;48.884;8.338;2023-05-15T12:39:03;1.33;;;1.10;;
10880;SDS011;5493;48.884;8.338;2023-05-15T12:41:31;1.73;;;1.30;;
10880;SDS011;5493;48.884;8.338;2023-05-15T12:44:00;0.95;;;0.93;;
10880;SDS011;5493;48.884;8.338;2023-05-15T12:46:28;1.40;;;0.88;;
10880;SDS011;5493;48.884;8.338;2023-05-15T12:48:56;1.95;;;1.10;;
10880;SDS011;5493;48.884;8.338;2023-05-15T12:51:23;3.03;;;1.30;;
10880;SDS011;5493;48.884;8.338;2023-05-15T12:53:51;1.10;;;1.00;;
10880;SDS011;5493;48.884;8.338;2023-05-15T12:56:18;1.20;;;1.10;;
10880;SDS011;5493;48.884;8.338;2023-05-15T12:58:46;2.63;;;0.90;;
10880;SDS011;5493;48.884;8.338;2023-05-15T13:01:14;1.88;;;1.00;;
10880;SDS011;5493;48.884;8.338;2023-05-15T13:03:41;1.67;;;0.90;;
10880;SDS011;5493;48.884;8.338;2023-05-15T13:06:08;1.30;;;1.10;;
10880;SDS011;5493;48.884;8.338;2023-05-15T13:08:37;1.23;;;1.13;;
10880;SDS011;5493;48.884;8.338;2023-05-15T13:11:09;1.23;;;1.00;;
10880;SDS011;5493;48.884;8.338;2023-05-15T13:13:41;1.00;;;1.00;;
10880;SDS011;5493;48.884;8.338;2023-05-15T13:16:17;1.02;;;0.93;;
10880;SDS011;5493;48.884;8.338;2023-05-15T13:18:45;1.75;;;1.38;;
10880;SDS011;5493;48.884;8.338;2023-05-15T13:21:11;1.52;;;1.42;;
10880;SDS011;5493;48.884;8.338;2023-05-15T13:23:38;2.67;;;1.20;;
10880;SDS011;5493;48.884;8.338;2023-05-15T13:26:05;1.30;;;1.20;;
10880;SDS011;5493;48.884;8.338;2023-05-15T13:28:32;1.48;;;1.00;;
10880;SDS011;5493;48.884;8.338;2023-05-15T13:30:58;1.35;;;1.10;;
10880;SDS011;5493;48.884;8.338;2023-05-15T13:33:26;1.20;;;1.10;;
10880;SDS011;5493;48.884;8.338;2023-05-15T13:35:53;1.67;;;1.10;;
10880;SDS011;5493;48.884;8.338;2023-05-15T13:38:21;1.20;;;1.10;;
10880;SDS011;5493;48.884;8.338;2023-05-15T13:40:47;1.30;;;1.20;;
10880;SDS011;5493;48.884;8.338;2023-05-15T13:43:14;1.20;;;1.10;;
10880;SDS011;5493;48.884;8.338;2023-05-15T13:45:40;1.40;;;1.30;;
10880;SDS011;5493;48.884;8.338;2023-05-15T13:48:07;2.88;;;1.35;;
10880;SDS011;5493;48.884;8.338;2023-05-15T13:50:35;1.55;;;1.20;;
10880;SDS011;5493;48.884;8.338;2023-05-15T13:53:01;1.35;;;1.20;;
10880;SDS011;5493;48.884;8.338;2023-05-15T13:55:28;2.13;;;1.60;;
10880;SDS011;5493;48.884;8.338;2023-05-15T13:57:55;2.38;;;1.42;;
10880;SDS011;5493;48.884;8.338;2023-05-15T14:00:22;1.85;;;1.40;;
10880;SDS011;5493;48.884;8.338;2023-05-15T14:02:48;1.92;;;1.30;;
10880;SDS011;5493;48.884;8.338;2023-05-15T14:05:15;2.20;;;1.42;;
10880;SDS011;5493;48.884;8.338;2023-05-15T14:07:43;1.85;;;1.67;;
10880;SDS011;5493;48.884;8.338;2023-05-15T14:10:10;2.08;;;1.52;;
10880;SDS011;5493;48.884;8.338;2023-05-15T14:12:36;1.60;;;1.48;;
10880;SDS011;5493;48.884;8.338;2023-05-15T14:15:04;1.52;;;1.40;;
10880;SDS011;5493;48.884;8.338;2023-05-15T14:17:31;2.72;;;1.90;;
10880;SDS011;5493;48.884;8.338;2023-05-15T14:19:57;1.35;;;1.13;;
10880;SDS011;5493;48.884;8.338;2023-05-15T14:22:24;2.30;;;1.60;;
10880;SDS011;5493;48.884;8.338;2023-05-15T14:24:52;1.40;;;1.30;;
10880;SDS011;5493;48.884;8.338;2023-05-15T14:27:18;1.83;;;1.42;;
10880;SDS011;5493;48.884;8.338;2023-05-15T14:29:45;2.35;;;1.55;;
10880;SDS011;5493;48.884;8.338;2023-05-15T14:32:12;1.42;;;1.33;;
10880;SDS011;5493;48.884;8.338;2023-05-15T14:34:39;2.25;;;1.60;;
10880;SDS011;5493;48.884;8.338;2023-05-15T14:37:06;1.70;;;1.50;;
10880;SDS011;5493;48.884;8.338;2023-05-15T14:39:33;2.08;;;1.30;;
10880;SDS011;5493;48.884;8.338;2023-05-15T14:42:00;1.63;;;1.52;;
10880;SDS011;5493;48.884;8.338;2023-05-15T14:44:27;1.60;;;1.50;;
10880;SDS011;5493;48.884;8.338;2023-05-15T14:47:03;1.95;;;1.60;;
10880;SDS011;5493;48.884;8.338;2023-05-15T14:49:30;2.15;;;1.60;;
10880;SDS011;5493;48.884;8.338;2023-05-15T14:51:57;3.78;;;2.05;;
10880;SDS011;5493;48.884;8.338;2023-05-15T14:54:23;1.80;;;1.70;;
10880;SDS011;5493;48.884;8.338;2023-05-15T14:56:50;1.60;;;1.50;;
10880;SDS011;5493;48.884;8.338;2023-05-15T14:59:18;2.10;;;1.90;;
10880;SDS011;5493;48.884;8.338;2023-05-15T15:01:44;1.83;;;1.60;;
10880;SDS011;5493;48.884;8.338;2023-05-15T15:04:11;1.70;;;1.60;;
10880;SDS011;5493;48.884;8.338;2023-05-15T15:06:37;21.90;;;11.60;;